Valders, Wisconsin
Current Conditions -  °F | °C
As of 8:56 AM on Friday 19 Dec 2014 (Local Time) from KMTW Reporting Station
Clear Clear  
Wind Chill: 14°   Ceiling: Unl
Heat Index: 22°   Visibility: 10mi
Dew Point: 20°   Wind: 6mph
Humidity: 92%   Direction: 330°NNW
Pressure: 30.32"   Gusts: NA
Location:  44.07°N, 87.88°W
Report Text: KMTW 191456Z AUTO 33005KT 10SM CLR M06/M07 A3032 RMK AO2 SLP293 T10561067 53011 FZRANO
Loading
Personal Weather Stations






























Interactive Weather Map New forecast layout! Learn more

10-Day Weather Forecast

Advertisements
Track Severe Weather on mobile